This is the latest recevied weather packets stored in our database for station/object OK3MS-5. If no packets are shown the sender has not sent any weather packets the latest 10 day(s).
| Time | Temp. | Humidity | Pressure | Rain* | Wind** | Luminosity | Snow |
|---|---|---|---|---|---|---|---|
| 1777861810 | 10.56° C | 71% | 1012.8 hPa | 0 mm | - | 0 W/m² | - |
| 1777861502 | 10.56° C | 72% | 1013 hPa | 0 mm | - | 0 W/m² | - |
| 1777861209 | 10.56° C | 73% | 1013 hPa | 0 mm | - | 0 W/m² | - |
| 1777860905 | 10.56° C | 73% | 1013 hPa | 0 mm | - | 0 W/m² | - |
| 1777860605 | 10.56° C | 72% | 1012.8 hPa | 0 mm | - | 0 W/m² | - |
| 1777860309 | 10.56° C | 72% | 1012.9 hPa | 0 mm | - | 0 W/m² | - |
| 1777860002 | 10.56° C | 71% | 1012.9 hPa | 0 mm | - | 0 W/m² | - |
| 1777859706 | 10.56° C | 71% | 1012.9 hPa | 0 mm | - | 0 W/m² | - |
| 1777859405 | 10.56° C | 72% | 1012.9 hPa | 0 mm | - | 0 W/m² | - |
| 1777859104 | 11.11° C | 71% | 1012.8 hPa | 0 mm | - | 0 W/m² | - |
| 1777858805 | 11.11° C | 70% | 1012.8 hPa | 0 mm | - | 0 W/m² | - |
| 1777858503 | 11.11° C | 70% | 1012.8 hPa | 0 mm | - | 0 W/m² | - |
| 1777858203 | 11.11° C | 70% | 1012.8 hPa | 0 mm | - | 0 W/m² | - |
| 1777857904 | 11.67° C | 67% | 1012.6 hPa | 0 mm | - | 0 W/m² | - |
| 1777857603 | 11.67° C | 66% | 1012.5 hPa | 0 mm | - | 0 W/m² | - |
| 1777857302 | 11.67° C | 70% | 1012.6 hPa | 0 mm | - | 0 W/m² | - |
| 1777857010 | 11.67° C | 69% | 1012.6 hPa | 0 mm | - | 0 W/m² | - |
| 1777856704 | 11.67° C | 67% | 1012.5 hPa | 0 mm | - | 0 W/m² | - |
| 1777856409 | 12.22° C | 64% | 1012.4 hPa | 0 mm | - | 0 W/m² | - |
| 1777856103 | 13.33° C | 59% | 1012.3 hPa | 0 mm | - | 0 W/m² | - |
| 1777855804 | 13.33° C | 59% | 1012.1 hPa | 0 mm | - | 0 W/m² | - |
| 1777855503 | 13.33° C | 58% | 1012.2 hPa | 0 mm | - | 0 W/m² | - |
| 1777855203 | 13.33° C | 59% | 1012.2 hPa | 0 mm | - | 0 W/m² | - |
| 1777854909 | 13.33° C | 59% | 1012.2 hPa | 0 mm | - | 0 W/m² | - |
| 1777854603 | 13.33° C | 59% | 1012.2 hPa | 0 mm | - | 0 W/m² | - |
* Rain latest hour (hover to see other rain measurements)
** Current wind speed in m/s (hover to see current wind gust speed)